Time;durP1;ratioP1;P1;durP2;ratioP2;P2;SDS_P1;SDS_P2;PMS_P1;PMS_P2;Temp;Humidity;BMP_temperature;BMP_pressure;BME280_temperature;BME280_humidity;BME280_pressure;Samples;Min_cycle;Max_cycle;Signal;HPM_P1;HPM_P2
2020/12/04 00:01:15;;;;;;;26.60;12.23;;;;;;;3.42;80.48;101116.23;128916;1092;101984;-82
2020/12/04 00:03:43;;;;;;;29.10;12.80;;;;;;;3.42;80.53;101118.83;128968;1092;101948;-81
2020/12/04 00:06:12;;;;;;;28.17;12.80;;;;;;;3.42;80.55;101104.97;128906;1092;104870;-82
2020/12/04 00:08:40;;;;;;;33.63;15.57;;;;;;;3.42;81.22;101103.27;128889;1092;102105;-82
2020/12/04 00:11:08;;;;;;;30.67;15.07;;;;;;;3.43;80.92;101104.19;128950;1092;102057;-81
2020/12/04 00:13:36;;;;;;;30.60;14.47;;;;;;;3.44;81.07;101111.16;128898;1092;101939;-82
2020/12/04 00:16:04;;;;;;;29.63;13.67;;;;;;;3.41;81.16;101103.16;128956;1092;101949;-84
2020/12/04 00:18:32;;;;;;;27.70;13.13;;;;;;;3.37;80.38;101120.20;128967;1092;103096;-83
2020/12/04 00:21:01;;;;;;;29.03;12.90;;;;;;;3.35;81.00;101119.19;128887;1092;102130;-82
2020/12/04 00:23:30;;;;;;;24.10;9.97;;;;;;;3.33;80.88;101122.44;128952;1092;101949;-81
2020/12/04 00:26:00;;;;;;;26.50;11.47;;;;;;;3.33;81.08;101127.63;128961;1092;101971;-82
2020/12/04 00:28:29;;;;;;;29.80;13.17;;;;;;;3.33;80.58;101125.03;128946;1092;101981;-82
2020/12/04 00:30:57;;;;;;;24.93;11.27;;;;;;;3.34;80.78;101125.16;128961;1092;103149;-85
2020/12/04 00:33:28;;;;;;;30.33;13.17;;;;;;;3.34;81.23;101122.55;128925;1092;102035;-82
2020/12/04 00:35:56;;;;;;;27.53;13.17;;;;;;;3.32;80.89;101115.44;128966;1092;102023;-82
2020/12/04 00:38:24;;;;;;;28.03;13.13;;;;;;;3.33;81.36;101112.95;128951;1092;101955;-84
2020/12/04 00:40:52;;;;;;;23.37;10.90;;;;;;;3.36;80.79;101114.89;128966;1092;101981;-82
2020/12/04 00:43:20;;;;;;;24.77;11.17;;;;;;;3.37;80.40;101121.89;128911;1092;103210;-81
2020/12/04 00:45:48;;;;;;;28.53;12.80;;;;;;;3.38;80.61;101115.89;128888;1092;102103;-82
2020/12/04 00:48:17;;;;;;;28.83;13.33;;;;;;;3.37;80.15;101109.81;128887;1092;101961;-83
2020/12/04 00:50:45;;;;;;;27.10;12.33;;;;;;;3.36;80.84;101109.70;128925;1092;101971;-83
2020/12/04 00:53:14;;;;;;;24.90;11.63;;;;;;;3.34;80.21;101103.51;128978;1092;101929;-83
2020/12/04 00:55:43;;;;;;;26.20;11.40;;;;;;;3.33;81.10;101109.47;128936;1092;103276;-82
2020/12/04 00:58:11;;;;;;;21.03;9.03;;;;;;;3.33;80.85;101106.88;128909;1092;102093;-82
2020/12/04 01:00:40;;;;;;;25.07;12.13;;;;;;;3.31;80.24;101108.47;128946;1092;101962;-84
2020/12/04 01:03:08;;;;;;;26.37;12.10;;;;;;;3.29;80.55;101120.39;128942;1092;101968;-83
2020/12/04 01:05:36;;;;;;;24.13;11.20;;;;;;;3.25;80.85;101108.91;128953;1092;102053;-82
2020/12/04 01:08:04;;;;;;;24.57;10.87;;;;;;;3.24;80.45;101112.27;128929;1092;103130;-81
2020/12/04 01:10:32;;;;;;;24.83;9.70;;;;;;;3.21;80.75;101110.38;128895;1092;102130;-82
2020/12/04 01:13:00;;;;;;;22.47;9.37;;;;;;;3.22;80.92;101108.67;128900;1092;102017;-83
2020/12/04 01:15:28;;;;;;;24.73;10.93;;;;;;;3.24;80.80;101107.08;128949;1092;101938;-81
2020/12/04 01:17:56;;;;;;;22.63;10.57;;;;;;;3.27;80.96;101111.61;128931;1092;102043;-84
2020/12/04 01:20:30;;;;;;;24.90;10.43;;;;;;;3.24;80.94;101101.89;128912;1092;103108;-82
2020/12/04 01:23:01;;;;;;;24.52;10.23;;;;;;;3.20;80.38;101102.48;128915;1092;101971;-85
2020/12/04 01:25:29;;;;;;;22.40;8.97;;;;;;;3.17;80.23;101095.36;128950;1092;101987;-83
2020/12/04 01:28:00;;;;;;;25.83;10.57;;;;;;;3.18;80.87;101104.03;128914;1092;101951;-82
2020/12/04 01:30:31;;;;;;;19.73;7.53;;;;;;;3.20;80.67;101094.70;128937;1092;101968;-84
2020/12/04 01:33:03;;;;;;;23.90;10.10;;;;;;;3.17;81.03;101095.36;128965;1092;104515;-84
2020/12/04 01:35:31;;;;;;;20.50;8.97;;;;;;;3.16;81.39;101096.13;128904;1092;102045;-83
2020/12/04 01:37:59;;;;;;;20.93;9.00;;;;;;;3.16;80.79;101095.24;128961;1092;101977;-84
2020/12/04 01:40:28;;;;;;;23.83;9.83;;;;;;;3.19;80.79;101093.77;128932;1092;102131;-81
2020/12/04 01:43:00;;;;;;;20.40;9.13;;;;;;;3.21;80.75;101099.08;128952;1092;102004;-82
2020/12/04 01:45:34;;;;;;;21.43;10.20;;;;;;;3.21;81.39;101088.70;128961;1092;103127;-83
2020/12/04 01:48:03;;;;;;;20.37;8.63;;;;;;;3.20;80.96;101090.41;128911;1092;102074;-82
2020/12/04 01:50:32;;;;;;;22.07;9.57;;;;;;;3.16;80.34;101090.95;128940;1092;101961;-82
2020/12/04 01:53:02;;;;;;;20.17;8.53;;;;;;;3.14;80.85;101089.94;128943;1092;101961;-82
2020/12/04 01:55:38;;;;;;;19.90;7.40;;;;;;;3.13;81.08;101077.78;128918;1092;101938;-81
2020/12/04 01:58:10;;;;;;;16.83;7.40;;;;;;;3.12;80.93;101080.27;128925;1092;103185;-83
2020/12/04 02:00:40;;;;;;;19.60;8.03;;;;;;;3.09;81.05;101065.36;128932;1092;102016;-83
2020/12/04 02:03:14;;;;;;;18.43;7.23;;;;;;;3.07;80.94;101066.95;128933;1092;101968;-85
2020/12/04 02:05:48;;;;;;;19.53;8.80;;;;;;;3.09;81.00;101065.36;128917;1092;102087;-84
2020/12/04 02:08:35;;;;;;;19.45;8.18;;;;;;;3.10;80.99;101069.77;128957;1092;101924;-82
2020/12/04 02:11:12;;;;;;;17.53;7.67;;;;;;;3.10;81.00;101062.00;128958;1092;103193;-82
2020/12/04 02:13:45;;;;;;;18.87;7.43;;;;;;;3.13;80.54;101056.11;128937;1092;102038;-83
2020/12/04 02:16:16;;;;;;;19.40;8.47;;;;;;;3.15;80.96;101059.75;128921;1092;101972;-84
2020/12/04 02:18:44;;;;;;;19.60;8.53;;;;;;;3.16;80.76;101048.56;128943;1092;102013;-83
2020/12/04 02:21:13;;;;;;;18.00;7.70;;;;;;;3.19;81.08;101041.90;128942;1092;101943;-83
2020/12/04 02:23:45;;;;;;;23.03;9.57;;;;;;;3.17;80.89;101046.08;128926;1092;103060;-83
2020/12/04 02:26:15;;;;;;;20.93;9.47;;;;;;;3.19;80.37;101066.95;128895;1092;102007;-81
2020/12/04 02:28:43;;;;;;;20.67;9.67;;;;;;;3.21;80.67;101055.91;128947;1092;101942;-86
2020/12/04 02:31:12;;;;;;;21.40;9.87;;;;;;;3.23;80.79;101059.50;128932;1092;102074;-81
2020/12/04 02:33:40;;;;;;;20.93;8.47;;;;;;;3.27;80.39;101064.92;128905;1092;101997;-84
2020/12/04 02:36:09;;;;;;;21.87;10.10;;;;;;;3.27;81.04;101060.63;128870;1092;102812;-81
2020/12/04 02:38:38;;;;;;;19.17;8.43;;;;;;;3.31;80.99;101056.59;128883;1092;102121;-81
2020/12/04 02:41:10;;;;;;;20.00;8.37;;;;;;;3.34;80.93;101065.48;128943;1092;102035;-82
2020/12/04 02:43:38;;;;;;;20.43;7.63;;;;;;;3.35;80.75;101064.70;128943;1092;101981;-83
2020/12/04 02:46:09;;;;;;;23.07;9.50;;;;;;;3.33;81.04;101067.97;128977;1092;101977;-82
2020/12/04 02:48:37;;;;;;;20.40;8.57;;;;;;;3.33;81.44;101075.75;128956;1092;103353;-83
2020/12/04 02:51:07;;;;;;;17.73;7.70;;;;;;;3.33;80.93;101075.75;128903;1092;102100;-83
2020/12/04 02:53:35;;;;;;;18.07;7.07;;;;;;;3.33;80.55;101076.64;128954;1092;102019;-83
2020/12/04 02:56:04;;;;;;;20.03;8.83;;;;;;;3.32;80.71;101073.94;128934;1092;101951;-83
2020/12/04 02:58:32;;;;;;;20.37;8.47;;;;;;;3.33;80.71;101074.05;128984;1092;101961;-83
2020/12/04 03:01:00;;;;;;;19.83;8.30;;;;;;;3.34;80.90;101083.64;128933;1092;103091;-82
2020/12/04 03:03:28;;;;;;;21.27;9.53;;;;;;;3.33;80.79;101075.75;128908;1092;102139;-83
2020/12/04 03:05:56;;;;;;;21.13;8.73;;;;;;;3.28;80.78;101072.81;128947;1092;101936;-84
2020/12/04 03:08:25;;;;;;;19.87;8.37;;;;;;;3.28;80.92;101072.81;128963;1092;101971;-83
2020/12/04 03:10:58;;;;;;;19.07;8.10;;;;;;;3.27;81.16;101093.45;128950;1092;101984;-84
2020/12/04 03:13:27;;;;;;;18.07;7.33;;;;;;;3.26;80.50;101083.85;128903;1092;104582;-83
2020/12/04 03:15:55;;;;;;;19.50;8.40;;;;;;;3.23;80.43;101090.63;128947;1092;102179;-84
2020/12/04 03:18:23;;;;;;;20.77;8.70;;;;;;;3.23;80.31;101084.55;128944;1092;101970;-83
2020/12/04 03:20:51;;;;;;;21.27;9.23;;;;;;;3.17;81.13;101089.28;128925;1092;101949;-83
2020/12/04 03:23:19;;;;;;;18.73;8.23;;;;;;;3.13;80.80;101087.23;128944;1092;102001;-83
2020/12/04 03:25:48;;;;;;;19.13;7.93;;;;;;;3.13;81.08;101085.56;128943;1092;103113;-82
2020/12/04 03:28:16;;;;;;;20.20;8.53;;;;;;;3.08;80.27;101081.70;128897;1092;102084;-82
2020/12/04 03:30:44;;;;;;;21.33;9.27;;;;;;;3.05;81.11;101077.21;128932;1092;101932;-85
2020/12/04 03:33:13;;;;;;;21.57;8.03;;;;;;;3.03;79.99;101073.58;128927;1092;101994;-83
2020/12/04 03:35:42;;;;;;;20.13;8.70;;;;;;;2.99;79.80;101073.23;128961;1092;101946;-82
2020/12/04 03:38:13;;;;;;;16.93;7.10;;;;;;;2.95;79.98;101066.03;128932;1092;103072;-82
2020/12/04 03:40:44;;;;;;;16.70;7.50;;;;;;;2.92;80.11;101065.80;128931;1092;102094;-83
2020/12/04 03:43:12;;;;;;;20.13;8.40;;;;;;;2.87;80.32;101068.94;128948;1092;101966;-82
2020/12/04 03:45:40;;;;;;;17.70;7.57;;;;;;;2.89;80.78;101053.50;128956;1092;101981;-84
2020/12/04 03:48:08;;;;;;;18.27;8.07;;;;;;;2.87;80.38;101066.34;128931;1091;101990;-83
2020/12/04 03:50:36;;;;;;;18.40;8.53;;;;;;;2.84;80.62;101071.30;128902;1091;103120;-84
2020/12/04 03:53:04;;;;;;;19.93;7.60;;;;;;;2.79;79.86;101056.17;128908;1092;102094;-82
2020/12/04 03:55:33;;;;;;;22.77;8.50;;;;;;;2.77;80.61;101070.72;128937;1092;102013;-84
2020/12/04 03:58:01;;;;;;;20.30;8.43;;;;;;;2.79;81.10;101070.05;128939;1092;101994;-83
2020/12/04 04:00:29;;;;;;;19.37;7.67;;;;;;;2.82;80.81;101062.52;128962;1092;101961;-84
2020/12/04 04:02:57;;;;;;;19.10;8.17;;;;;;;2.85;80.71;101073.11;128937;1092;103167;-84
2020/12/04 04:05:25;;;;;;;20.30;8.57;;;;;;;2.83;80.40;101066.89;128907;1092;102171;-81
2020/12/04 04:07:53;;;;;;;21.70;8.90;;;;;;;2.80;80.63;101065.77;128903;1092;101937;-84
2020/12/04 04:10:21;;;;;;;16.67;6.50;;;;;;;2.79;80.33;101064.88;128962;1092;101964;-82
2020/12/04 04:12:49;;;;;;;19.97;8.30;;;;;;;2.73;79.88;101061.81;128949;1092;101986;-82
2020/12/04 04:15:17;;;;;;;16.33;7.50;;;;;;;2.71;80.10;101063.36;128878;1092;103229;-84
2020/12/04 04:17:46;;;;;;;18.80;6.47;;;;;;;2.70;80.70;101069.35;128889;1092;102104;-84
2020/12/04 04:20:14;;;;;;;19.53;7.63;;;;;;;2.71;80.54;101078.91;128944;1092;101942;-83
2020/12/04 04:22:42;;;;;;;20.83;7.70;;;;;;;2.77;81.04;101076.79;128921;1092;102057;-82
2020/12/04 04:25:12;;;;;;;21.27;7.77;;;;;;;2.77;80.30;101079.38;128961;1092;102063;-82
2020/12/04 04:27:41;;;;;;;17.80;6.73;;;;;;;2.76;79.92;101089.62;128945;1092;103238;-83
2020/12/04 04:30:09;;;;;;;20.27;8.17;;;;;;;2.73;79.92;101087.73;128912;1092;102097;-83
2020/12/04 04:32:37;;;;;;;18.37;7.47;;;;;;;2.71;79.85;101081.50;128957;1092;101948;-84
2020/12/04 04:35:06;;;;;;;20.13;8.00;;;;;;;2.72;80.76;101072.95;128916;1092;102206;-83
2020/12/04 04:37:35;;;;;;;21.03;8.23;;;;;;;2.70;80.56;101080.61;128947;1092;101990;-82
2020/12/04 04:40:04;;;;;;;20.33;7.80;;;;;;;2.70;79.96;101082.31;128947;1092;103142;-83
2020/12/04 04:42:32;;;;;;;18.50;8.03;;;;;;;2.68;79.97;101083.86;128893;1092;102081;-80
2020/12/04 04:45:03;;;;;;;21.30;8.47;;;;;;;2.67;80.29;101082.97;128928;1092;101958;-81
2020/12/04 04:47:38;;;;;;;21.23;9.00;;;;;;;2.70;80.05;101080.61;128920;1092;102007;-83
2020/12/04 04:50:06;;;;;;;;;;;;;;;2.72;79.86;101083.32;129008;1092;102024;-82
2020/12/04 04:52:36;;;;;;;21.80;8.77;;;;;;;2.72;80.74;101078.14;128933;1092;103120;-82
2020/12/04 04:55:06;;;;;;;17.63;8.33;;;;;;;2.74;80.09;101084.33;128889;1092;102100;-82
2020/12/04 04:57:34;;;;;;;21.43;9.03;;;;;;;2.74;80.47;101094.70;128932;1092;101956;-82
2020/12/04 05:00:03;;;;;;;18.40;7.90;;;;;;;2.74;80.50;101084.33;128946;1092;101927;-85
2020/12/04 05:02:31;;;;;;;19.13;7.30;;;;;;;2.74;80.41;101076.55;128975;1091;101920;-86
2020/12/04 05:04:59;;;;;;;21.73;8.70;;;;;;;2.75;80.03;101074.89;128923;1092;102901;-81
2020/12/04 05:07:32;;;;;;;19.50;8.13;;;;;;;2.78;79.66;101073.42;128885;1092;102167;-82
2020/12/04 05:10:12;;;;;;;20.07;8.30;;;;;;;2.80;80.22;101084.80;128933;1092;101940;-83
2020/12/04 05:12:43;;;;;;;21.00;8.70;;;;;;;2.79;79.68;101083.02;128921;1090;101958;-83
2020/12/04 05:15:23;;;;;;;22.90;9.43;;;;;;;2.80;80.23;101095.16;128935;1091;101951;-83
2020/12/04 05:18:03;;;;;;;18.47;8.33;;;;;;;2.81;80.70;101099.58;128957;1092;103199;-82
2020/12/04 05:20:31;;;;;;;21.90;9.13;;;;;;;2.84;80.54;101099.81;128918;1091;102019;-83
2020/12/04 05:23:01;;;;;;;22.13;9.77;;;;;;;2.85;80.78;101096.44;128955;1092;101943;-82
2020/12/04 05:25:34;;;;;;;21.37;10.03;;;;;;;2.87;79.69;101107.82;128932;1092;101971;-83
2020/12/04 05:28:14;;;;;;;24.27;10.60;;;;;;;2.88;80.41;101103.53;128976;1092;101952;-82
2020/12/04 05:30:44;;;;;;;19.70;8.50;;;;;;;2.91;80.53;101100.28;128966;1092;103282;-84
2020/12/04 05:33:13;;;;;;;18.40;8.17;;;;;;;2.92;80.58;101102.09;128934;1092;102052;-85
2020/12/04 05:35:42;;;;;;;20.43;8.47;;;;;;;2.94;80.03;101109.18;128929;1092;101949;-85
2020/12/04 05:38:15;;;;;;;22.10;8.70;;;;;;;2.98;80.85;101098.27;128929;1092;101959;-86
2020/12/04 05:40:45;;;;;;;22.03;9.67;;;;;;;2.98;80.33;101110.34;128913;1092;101990;-84
2020/12/04 05:43:14;;;;;;;21.10;10.43;;;;;;;3.01;79.99;101118.34;128940;1092;103108;-87
2020/12/04 05:45:44;;;;;;;23.37;9.70;;;;;;;3.04;80.06;101118.58;128881;1092;102090;-87
2020/12/04 05:48:25;;;;;;;20.93;9.77;;;;;;;3.07;79.83;101118.81;128967;1092;102019;-82
2020/12/04 05:51:00;;;;;;;21.97;10.27;;;;;;;3.12;80.40;101107.09;128952;1092;101979;-83
2020/12/04 05:53:28;;;;;;;22.90;10.00;;;;;;;3.16;79.73;101113.39;128949;1092;101941;-83
2020/12/04 05:55:58;;;;;;;24.27;10.60;;;;;;;3.21;80.24;101112.97;128969;1092;103143;-83
2020/12/04 05:58:31;;;;;;;21.63;10.17;;;;;;;3.19;80.71;101114.52;128923;1092;102094;-85
2020/12/04 06:01:03;;;;;;;21.07;8.00;;;;;;;3.21;80.02;101112.97;128920;1092;101967;-86
2020/12/04 06:03:32;;;;;;;19.83;9.00;;;;;;;3.24;80.71;101115.79;128927;1092;101953;-83
2020/12/04 06:06:07;;;;;;;18.50;8.37;;;;;;;3.30;80.02;101106.65;128985;1092;101939;-84
2020/12/04 06:08:42;;;;;;;23.40;9.53;;;;;;;3.33;79.83;101117.25;128987;1092;103061;-86
2020/12/04 06:11:11;;;;;;;22.10;9.80;;;;;;;3.34;80.55;101125.16;128903;1092;102016;-85
2020/12/04 06:13:39;;;;;;;16.47;7.47;;;;;;;3.37;79.96;101129.67;128930;1092;101939;-84
2020/12/04 06:16:17;;;;;;;19.77;9.20;;;;;;;3.39;80.06;101131.58;128919;1092;101977;-84
2020/12/04 06:18:47;;;;;;;20.40;9.10;;;;;;;3.44;79.95;101131.92;128955;1092;101931;-85
2020/12/04 06:21:36;;;;;;;20.90;8.40;;;;;;;3.48;80.11;101136.56;128926;1092;103142;-84
2020/12/04 06:24:07;;;;;;;21.03;8.67;;;;;;;3.51;79.49;101143.68;128596;1092;102190;-85
2020/12/04 06:26:51;;;;;;;19.83;8.63;;;;;;;3.52;79.95;101135.08;128922;1092;102232;-81
2020/12/04 06:29:21;;;;;;;20.40;8.23;;;;;;;3.56;80.50;101132.83;128888;1092;102057;-84
2020/12/04 06:31:49;;;;;;;18.60;8.20;;;;;;;3.62;80.12;101110.73;128955;1092;102044;-83
2020/12/04 06:34:19;;;;;;;19.93;8.23;;;;;;;3.66;80.42;101117.94;128900;1092;102442;-85
2020/12/04 06:36:50;;;;;;;20.70;9.00;;;;;;;3.72;79.73;101120.98;128891;1091;102097;-91
2020/12/04 06:39:32;;;;;;;23.97;9.50;;;;;;;3.76;79.99;101133.41;128938;1092;102107;-83
2020/12/04 06:42:07;;;;;;;21.47;8.43;;;;;;;3.80;80.10;101131.92;128898;1092;102123;-86
2020/12/04 06:44:52;;;;;;;22.33;8.70;;;;;;;3.82;79.82;101127.73;128971;1092;102053;-86
2020/12/04 06:47:20;;;;;;;23.90;9.90;;;;;;;3.86;80.47;101127.18;128936;1092;103085;-85
2020/12/04 06:49:49;;;;;;;23.97;10.37;;;;;;;3.92;80.26;101136.31;128884;1092;102322;-85
2020/12/04 06:52:19;;;;;;;25.37;10.07;;;;;;;3.95;80.26;101128.73;128938;1092;101966;-83
2020/12/04 06:54:52;;;;;;;25.33;10.57;;;;;;;4.01;79.93;101138.68;128973;1092;101997;-85
2020/12/04 06:57:25;;;;;;;24.23;10.23;;;;;;;4.02;79.96;101131.78;128910;1092;102033;-81
2020/12/04 06:59:59;;;;;;;28.10;10.00;;;;;;;4.05;80.38;101134.59;128887;1092;104392;-81
2020/12/04 07:02:27;;;;;;;32.57;11.13;;;;;;;4.10;80.71;101141.05;128923;1092;102057;-83
2020/12/04 07:04:56;;;;;;;34.27;11.37;;;;;;;4.17;80.54;101130.28;128953;1092;101936;-84
2020/12/04 07:07:30;;;;;;;27.23;11.17;;;;;;;4.23;80.03;101135.02;128954;1092;101985;-89
2020/12/04 07:10:01;;;;;;;;;;;;;;;4.24;80.64;101118.63;129000;1092;102025;-88
2020/12/04 07:12:35;;;;;;;28.97;12.07;;;;;;;4.22;80.44;101122.81;128965;1092;103152;-86
2020/12/04 07:15:06;;;;;;;32.00;13.47;;;;;;;4.22;80.62;101128.91;128899;1092;102079;-87
2020/12/04 07:17:40;;;;;;;33.67;13.17;;;;;;;4.27;80.65;101131.83;128918;1092;102029;-82
2020/12/04 07:20:09;;;;;;;32.53;14.47;;;;;;;4.30;80.60;101130.38;128946;1092;101984;-87
2020/12/04 07:22:37;;;;;;;32.13;12.20;;;;;;;4.32;81.05;101131.38;128978;1092;101926;-84
2020/12/04 07:25:07;;;;;;;29.43;11.50;;;;;;;4.30;80.35;101119.98;128990;1092;103138;-90
2020/12/04 07:27:37;;;;;;;32.47;13.93;;;;;;;4.31;80.97;101133.86;128932;1091;102058;-87
2020/12/04 07:30:19;;;;;;;31.80;12.27;;;;;;;4.35;80.71;101127.18;128917;1092;101962;-86
2020/12/04 07:32:51;;;;;;;37.13;13.20;;;;;;;4.40;80.99;101125.83;128970;1092;101971;-87
2020/12/04 07:35:20;;;;;;;35.37;15.43;;;;;;;4.46;80.83;101128.86;128965;1092;102412;-84
2020/12/04 07:37:53;;;;;;;37.67;16.57;;;;;;;4.49;80.52;101131.67;128962;1092;103292;-87
2020/12/04 07:40:22;;;;;;;38.17;15.47;;;;;;;4.48;81.06;101127.27;128946;1092;102093;-84
2020/12/04 07:42:51;;;;;;;37.07;15.10;;;;;;;4.50;80.97;101128.27;128967;1091;102009;-80
2020/12/04 07:45:20;;;;;;;37.10;15.00;;;;;;;4.52;81.23;101138.77;128909;1092;101984;-79
2020/12/04 07:47:54;;;;;;;38.13;15.33;;;;;;;4.57;81.24;101135.70;128926;1092;101951;-82
2020/12/04 07:50:23;;;;;;;34.33;14.90;;;;;;;4.63;81.02;101138.73;128957;1092;103094;-82
2020/12/04 07:53:05;;;;;;;36.23;16.13;;;;;;;4.68;80.79;101141.66;128845;1092;102127;-80
2020/12/04 07:55:44;;;;;;;40.63;17.67;;;;;;;4.72;81.01;101134.95;128946;1092;101937;-85
2020/12/04 07:58:22;;;;;;;41.37;17.20;;;;;;;4.75;81.38;101130.86;128977;1092;101974;-82
2020/12/04 08:00:51;;;;;;;37.47;15.27;;;;;;;4.76;81.10;101135.28;128938;1092;101962;-82
2020/12/04 08:03:20;;;;;;;38.47;17.30;;;;;;;4.78;81.46;101132.78;128963;1092;103466;-80
2020/12/04 08:05:51;;;;;;;33.33;15.07;;;;;;;4.82;81.63;101130.50;128908;1091;102219;-80
2020/12/04 08:08:22;;;;;;;38.87;17.97;;;;;;;4.85;81.32;101132.42;128970;1091;101994;-79
2020/12/04 08:10:51;;;;;;;43.03;17.03;;;;;;;4.89;81.19;101126.61;128879;1092;102061;-76
2020/12/04 08:13:21;;;;;;;40.70;18.90;;;;;;;4.94;81.50;101124.33;128943;1092;101946;-81
2020/12/04 08:15:53;;;;;;;39.67;17.40;;;;;;;4.96;81.30;101127.95;128949;1092;103113;-82
2020/12/04 08:18:22;;;;;;;38.83;17.70;;;;;;;4.98;81.56;101122.04;128932;1092;102164;-81
2020/12/04 08:21:05;;;;;;;42.03;18.20;;;;;;;4.99;81.20;101123.86;128948;1092;101997;-82
2020/12/04 08:23:34;;;;;;;36.43;16.00;;;;;;;5.03;81.43;101120.67;128923;1092;101981;-84
2020/12/04 08:26:18;;;;;;;41.63;18.00;;;;;;;5.07;81.44;101115.69;128925;1092;101984;-81
2020/12/04 08:28:53;;;;;;;37.83;16.63;;;;;;;5.12;81.84;101109.08;128957;1092;104473;-80
2020/12/04 08:31:26;;;;;;;40.50;18.60;;;;;;;5.14;81.37;101117.88;128976;1092;102064;-80
2020/12/04 08:33:57;;;;;;;43.80;18.87;;;;;;;5.16;81.48;101124.11;128918;1092;102000;-78
2020/12/04 08:36:26;;;;;;;38.57;17.60;;;;;;;5.18;81.91;101114.70;128927;1092;101958;-80
2020/12/04 08:38:54;;;;;;;33.70;15.43;;;;;;;5.22;81.93;101115.00;128931;1092;101940;-83
2020/12/04 08:41:37;;;;;;;31.40;13.93;;;;;;;5.27;81.84;101115.31;128952;1092;103096;-85
2020/12/04 08:44:11;;;;;;;36.10;16.33;;;;;;;5.31;82.05;101114.70;128918;1091;102117;-86
2020/12/04 08:46:43;;;;;;;45.13;18.67;;;;;;;5.35;81.91;101111.52;128909;1092;102003;-80
2020/12/04 08:49:29;;;;;;;40.07;19.43;;;;;;;5.38;81.70;101103.91;128932;1091;101962;-79
2020/12/04 08:51:59;;;;;;;32.13;12.63;;;;;;;5.39;82.28;101103.12;128936;1092;102009;-80
2020/12/04 08:54:31;;;;;;;43.03;17.20;;;;;;;5.42;81.65;101114.52;128944;1092;104026;-82
2020/12/04 08:57:05;;;;;;;37.77;15.40;;;;;;;5.44;82.01;101103.42;128900;1092;102083;-84
2020/12/04 08:59:35;;;;;;;44.83;17.30;;;;;;;5.48;82.34;101091.50;128961;1092;101927;-82
2020/12/04 09:02:03;;;;;;;35.20;15.40;;;;;;;5.53;82.06;101084.88;128954;1092;102000;-89
2020/12/04 09:04:32;;;;;;;40.70;17.53;;;;;;;5.57;82.05;101092.11;128926;1092;101936;-81
2020/12/04 09:07:12;;;;;;;41.93;17.77;;;;;;;5.61;81.96;101087.98;128922;1092;103105;-83
2020/12/04 09:09:43;;;;;;;36.70;16.80;;;;;;;5.62;82.17;101095.90;128921;1092;102094;-84
2020/12/04 09:12:14;;;;;;;37.60;16.67;;;;;;;5.64;81.98;101086.51;128911;1092;101988;-81
2020/12/04 09:14:53;;;;;;;33.47;16.07;;;;;;;5.66;82.21;101092.70;128916;1092;101981;-81
2020/12/04 09:17:23;;;;;;;37.20;16.03;;;;;;;5.66;82.30;101084.89;128949;1092;101889;-80
2020/12/04 09:19:52;;;;;;;38.57;16.23;;;;;;;5.68;82.34;101088.48;128942;1092;103042;-81
2020/12/04 09:22:24;;;;;;;32.60;15.27;;;;;;;5.71;82.38;101080.87;128890;1092;102134;-83
2020/12/04 09:24:52;;;;;;;42.07;17.00;;;;;;;5.75;82.26;101080.28;128942;1092;101978;-83
2020/12/04 09:27:21;;;;;;;42.13;17.70;;;;;;;5.80;82.36;101083.18;128885;1091;101974;-77
2020/12/04 09:29:51;;;;;;;37.67;16.70;;;;;;;5.81;82.47;101079.75;128967;1092;102025;-82
2020/12/04 09:32:20;;;;;;;42.23;19.80;;;;;;;5.81;82.26;101071.94;128953;1092;103103;-82
2020/12/04 09:34:57;;;;;;;37.90;16.73;;;;;;;5.87;82.53;101068.84;128913;1092;102045;-86
2020/12/04 09:37:29;;;;;;;41.60;18.97;;;;;;;5.92;82.52;101075.23;128944;1092;102026;-85
2020/12/04 09:40:03;;;;;;;36.87;15.70;;;;;;;5.93;82.15;101072.72;128938;1092;102033;-81
2020/12/04 09:42:44;;;;;;;36.40;16.67;;;;;;;5.96;82.42;101071.14;128963;1092;101985;-86
2020/12/04 09:45:15;;;;;;;42.70;18.27;;;;;;;6.01;82.20;101073.24;128966;1092;103195;-80
2020/12/04 09:47:50;;;;;;;38.20;18.43;;;;;;;6.06;82.29;101076.14;128917;1092;102099;-82
2020/12/04 09:50:33;;;;;;;42.83;18.60;;;;;;;6.05;82.43;101064.83;128952;1092;101945;-78
2020/12/04 09:53:21;;;;;;;45.73;20.00;;;;;;;6.06;82.50;101066.64;128926;1091;102003;-81
2020/12/04 09:55:51;;;;;;;34.50;15.00;;;;;;;6.09;82.49;101066.83;128965;1092;101938;-81
2020/12/04 09:58:23;;;;;;;41.80;18.47;;;;;;;6.08;82.35;101065.02;128926;1092;103344;-80
2020/12/04 10:01:06;;;;;;;34.63;14.97;;;;;;;6.09;82.28;101061.63;128894;1091;102053;-79
2020/12/04 10:03:37;;;;;;;42.80;18.97;;;;;;;6.12;82.55;101066.10;128930;1092;101941;-80
2020/12/04 10:06:11;;;;;;;42.13;18.07;;;;;;;6.16;82.22;101064.61;128947;1092;102023;-84
2020/12/04 10:08:39;;;;;;;44.33;19.37;;;;;;;6.14;82.69;101064.52;128933;1092;101977;-80
2020/12/04 10:11:13;;;;;;;34.50;14.40;;;;;;;6.13;82.51;101064.42;128959;1092;103120;-85
2020/12/04 10:13:42;;;;;;;32.58;11.65;;;;;;;6.14;82.78;101058.38;128954;1092;101975;-86
2020/12/04 10:16:16;;;;;;;32.30;13.77;;;;;;;6.14;82.29;101054.09;128939;1092;101988;-85
2020/12/04 10:18:48;;;;;;;24.33;10.13;;;;;;;6.17;82.67;101051.68;128932;1092;101972;-84
2020/12/04 10:21:23;;;;;;;26.60;11.70;;;;;;;6.21;82.32;101056.25;128947;1092;102020;-92
2020/12/04 10:23:55;;;;;;;28.97;11.50;;;;;;;6.25;82.47;101060.86;128962;1092;103087;-85
2020/12/04 10:26:23;;;;;;;27.43;11.97;;;;;;;6.28;82.32;101054.95;128909;1092;102122;-86
2020/12/04 10:28:52;;;;;;;24.53;10.40;;;;;;;6.28;82.29;101044.53;128932;1092;101971;-87
2020/12/04 10:31:21;;;;;;;25.67;10.73;;;;;;;6.30;82.06;101056.83;128947;1092;101986;-86
2020/12/04 10:33:50;;;;;;;23.53;9.90;;;;;;;6.33;82.15;101056.12;128932;1092;101968;-88
2020/12/04 10:36:18;;;;;;;28.30;11.20;;;;;;;6.33;82.20;101053.52;128892;1092;101974;-81
2020/12/04 10:38:47;;;;;;;24.07;9.53;;;;;;;6.34;82.20;101050.08;128905;1092;102154;-82
2020/12/04 10:41:20;;;;;;;27.57;11.13;;;;;;;6.35;82.30;101048.40;128963;1092;101982;-81
2020/12/04 10:43:49;;;;;;;27.60;10.13;;;;;;;6.36;82.39;101048.49;128891;1092;101964;-80
2020/12/04 10:46:20;;;;;;;26.67;10.07;;;;;;;6.34;82.25;101042.27;128959;1092;101997;-83
2020/12/04 10:48:48;;;;;;;28.07;12.53;;;;;;;6.30;82.21;101049.00;128943;1092;103696;-81
2020/12/04 10:51:22;;;;;;;29.73;11.70;;;;;;;6.28;82.23;101054.95;128924;1092;102543;-79
2020/12/04 10:53:51;;;;;;;28.90;11.70;;;;;;;6.30;82.06;101038.58;128925;1092;102097;-83
2020/12/04 10:56:28;;;;;;;27.17;11.20;;;;;;;6.35;82.42;101040.58;128936;1092;101935;-83
2020/12/04 10:59:00;;;;;;;25.43;10.00;;;;;;;6.35;82.34;101037.97;128904;1092;101939;-79
2020/12/04 11:01:42;;;;;;;20.90;8.80;;;;;;;6.36;81.97;101039.75;128924;1092;103125;-82
2020/12/04 11:07:04;;;;;;;;;;;;;;;;;;;;;
2020/12/04 11:09:32;;;;;;;20.50;8.70;;;;;;;6.37;82.44;101036.35;128945;1092;102053;-80
2020/12/04 11:12:03;;;;;;;22.93;8.67;;;;;;;6.33;82.35;101035.27;128913;1092;101998;-83
2020/12/04 11:14:45;;;;;;;21.83;8.77;;;;;;;6.30;82.37;101032.48;128955;1092;103087;-82
2020/12/04 11:17:25;;;;;;;19.00;7.90;;;;;;;6.27;82.36;101034.89;128912;1092;102074;-80
2020/12/04 11:19:53;;;;;;;20.37;8.33;;;;;;;6.28;82.56;101036.70;128965;1092;101940;-79
2020/12/04 11:22:22;;;;;;;21.70;8.43;;;;;;;6.30;82.59;101037.69;128932;1092;101993;-80
2020/12/04 11:24:50;;;;;;;22.23;10.13;;;;;;;6.27;82.28;101035.78;128951;1092;101983;-80
2020/12/04 11:27:18;;;;;;;26.97;11.07;;;;;;;6.25;82.31;101037.41;128956;1092;103080;-82